Terminal Aerodrome Forecast
Issued by NWS

Home | Current Version | Previous Version | Text Only | Print | Product List | Glossary On
Versions: 1 2 3 4 5 6 7 8 9 10 11 12 13 14 15 16 17 18 19 20 21 22 23 24
000
FTPQ31 PGUM 011720
TAFGUM
TAF

TAF
PGSN 011720Z 0118/0218 35007KT P6SM VCSH FEW020 SCT050
     FM020100 35010KT P6SM VCSH FEW020 SCT050
     FM020900 01013KT P6SM VCSH FEW018 SCT040 BKN140=

USA.gov is the U.S. government's official web portal to all federal, state and local government web resources and services.